Time;durP1;ratioP1;P1;durP2;ratioP2;P2;SDS_P1;SDS_P2;PMS_P1;PMS_P2;Temp;Humidity;BMP_temperature;BMP_pressure;BME280_temperature;BME280_humidity;BME280_pressure;Samples;Min_cycle;Max_cycle;Signal;HPM_P1;HPM_P2
2022/04/07 00:01:53;;;;;;;5.45;2.10;;;10.20;99.90;;;;;;5053072;28;20025;-59
2022/04/07 00:04:19;;;;;;;11.43;2.88;;;10.20;99.90;;;;;;5053390;28;20033;-59
2022/04/07 00:06:44;;;;;;;11.15;2.50;;;10.20;99.90;;;;;;5054147;28;20032;-59
2022/04/07 00:09:10;;;;;;;6.65;2.30;;;10.20;99.90;;;;;;5070396;28;20385;-59
2022/04/07 00:11:35;;;;;;;7.88;2.05;;;10.20;99.90;;;;;;5054324;28;20025;-59
2022/04/07 00:14:01;;;;;;;8.70;2.50;;;10.10;99.90;;;;;;5053956;28;20032;-59
2022/04/07 00:16:27;;;;;;;8.85;2.60;;;10.00;99.90;;;;;;5053144;28;20320;-58
2022/04/07 00:18:52;;;;;;;6.25;2.40;;;10.10;99.90;;;;;;5053680;28;20036;-59
2022/04/07 00:21:35;;;;;;;8.45;1.77;;;10.10;99.90;;;;;;5053261;28;20405;-59
2022/04/07 00:24:01;;;;;;;;;;;10.10;99.90;;;;;;5053757;28;20032;-59
2022/04/07 00:26:28;;;;;;;5.53;2.28;;;10.10;99.90;;;;;;5052995;28;19974;-58
2022/04/07 00:28:53;;;;;;;9.65;2.70;;;10.10;99.90;;;;;;5053175;28;20029;-58
2022/04/07 00:31:19;;;;;;;10.63;2.33;;;10.10;99.90;;;;;;5053265;28;20082;-58
2022/04/07 00:33:45;;;;;;;5.43;1.80;;;10.10;99.90;;;;;;5053537;28;20525;-58
2022/04/07 00:36:11;;;;;;;6.32;2.20;;;10.20;99.90;;;;;;5052845;28;20081;-59
2022/04/07 00:38:36;;;;;;;7.20;2.05;;;10.20;99.90;;;;;;5052732;28;20429;-58
2022/04/07 00:41:02;;;;;;;9.55;2.30;;;10.20;99.90;;;;;;5051878;28;20082;-58
2022/04/07 00:43:33;;;;;;;11.35;2.75;;;10.20;99.90;;;;;;5052733;28;20017;-58
2022/04/07 00:46:00;;;;;;;11.15;2.60;;;10.20;99.90;;;;;;5052383;28;20021;-58
2022/04/07 00:48:26;;;;;;;8.57;2.17;;;10.30;99.90;;;;;;5052180;28;20028;-58
2022/04/07 00:50:53;;;;;;;9.77;2.38;;;10.30;99.90;;;;;;5052275;28;20368;-58
2022/04/07 00:53:21;;;;;;;6.60;1.63;;;10.30;99.90;;;;;;5067892;28;20076;-58
2022/04/07 00:55:48;;;;;;;6.32;2.25;;;10.40;99.90;;;;;;5052539;28;20040;-59
2022/04/07 00:58:14;;;;;;;6.22;1.80;;;10.30;99.90;;;;;;5052365;28;20579;-58
2022/04/07 01:00:40;;;;;;;10.65;2.13;;;10.30;99.90;;;;;;5067364;28;20433;-59
2022/04/07 01:03:07;;;;;;;6.88;2.30;;;10.40;99.90;;;;;;5052029;28;20394;-58
2022/04/07 01:05:33;;;;;;;6.65;2.17;;;10.40;99.90;;;;;;5052278;28;20071;-58
2022/04/07 01:07:59;;;;;;;8.25;1.95;;;10.40;99.90;;;;;;5052034;28;20430;-58
2022/04/07 01:10:26;;;;;;;9.13;1.95;;;10.40;99.90;;;;;;5052387;28;20028;-59
2022/04/07 01:12:51;;;;;;;8.77;1.92;;;10.40;99.90;;;;;;5052932;28;20359;-58
2022/04/07 01:15:17;;;;;;;9.30;2.05;;;10.40;99.90;;;;;;5051888;28;20025;-59
2022/04/07 01:17:43;;;;;;;10.48;2.50;;;10.40;99.90;;;;;;5051914;28;20032;-58
2022/04/07 01:20:10;;;;;;;9.10;2.10;;;10.40;99.90;;;;;;5051783;28;20017;-59
2022/04/07 01:22:39;;;;;;;8.52;2.13;;;10.40;99.90;;;;;;5051906;28;20029;-58
2022/04/07 01:25:05;;;;;;;6.43;1.67;;;10.40;99.90;;;;;;5067037;28;20375;-59
2022/04/07 01:27:30;;;;;;;6.90;2.03;;;10.30;99.90;;;;;;5066909;28;20021;-58
2022/04/07 01:30:00;;;;;;;8.90;2.60;;;10.30;99.90;;;;;;5050531;28;20063;-58
2022/04/07 01:32:40;;;;;;;6.55;2.67;;;10.30;99.90;;;;;;5051726;28;20108;-59
2022/04/07 01:35:06;;;;;;;8.07;2.35;;;10.30;99.90;;;;;;5051790;28;20090;-59
2022/04/07 01:37:32;;;;;;;6.75;2.65;;;10.30;99.90;;;;;;5052286;28;20483;-58
2022/04/07 01:40:01;;;;;;;9.07;2.15;;;10.20;99.90;;;;;;5051849;28;20074;-58
2022/04/07 01:42:27;;;;;;;5.47;2.35;;;10.30;99.90;;;;;;5052014;28;20020;-58
2022/04/07 01:44:57;;;;;;;11.43;2.30;;;10.30;99.90;;;;;;5051488;28;20024;-58
2022/04/07 01:47:23;;;;;;;7.85;2.20;;;10.30;99.90;;;;;;5051061;28;20021;-58
2022/04/07 01:49:57;;;;;;;7.85;2.42;;;10.30;99.90;;;;;;5051714;28;20413;-58
2022/04/07 01:52:23;;;;;;;10.70;2.20;;;10.30;99.90;;;;;;5051370;28;20425;-58
2022/04/07 01:54:52;;;;;;;7.75;2.70;;;10.30;99.90;;;;;;5051403;28;20021;-58
2022/04/07 01:57:23;;;;;;;11.85;2.58;;;10.30;99.90;;;;;;5050869;28;20493;-58
2022/04/07 01:59:51;;;;;;;11.95;2.50;;;10.30;99.90;;;;;;5066368;28;20115;-58
2022/04/07 02:02:16;;;;;;;3.78;1.50;;;10.30;99.90;;;;;;5051213;28;20079;-58
2022/04/07 02:04:59;;;;;;;8.73;2.45;;;10.30;99.90;;;;;;5051041;28;20029;-59
2022/04/07 02:07:32;;;;;;;10.75;2.78;;;10.40;99.90;;;;;;5051247;28;20040;-58
2022/04/07 02:09:59;;;;;;;12.38;2.58;;;10.40;99.90;;;;;;5051664;28;20040;-58
2022/04/07 02:12:29;;;;;;;8.65;2.20;;;10.30;99.90;;;;;;5052284;28;20025;-58
2022/04/07 02:14:55;;;;;;;9.23;2.15;;;10.30;99.90;;;;;;5051583;28;20107;-58
2022/04/07 02:17:22;;;;;;;9.13;1.73;;;10.30;99.90;;;;;;5050524;28;20025;-58
2022/04/07 02:19:53;;;;;;;11.18;2.60;;;10.40;99.90;;;;;;5051136;28;20133;-58
2022/04/07 02:22:19;;;;;;;10.95;3.22;;;10.30;99.90;;;;;;5050554;28;20075;-58
2022/04/07 02:24:45;;;;;;;8.73;2.50;;;10.30;99.90;;;;;;5051101;28;20104;-58
2022/04/07 02:27:12;;;;;;;13.73;2.97;;;10.30;99.90;;;;;;5050877;28;20421;-58
2022/04/07 02:29:37;;;;;;;9.93;2.85;;;10.30;99.90;;;;;;5050916;28;20032;-58
2022/04/07 02:32:04;;;;;;;9.93;2.65;;;10.30;99.90;;;;;;5050574;28;20482;-60
2022/04/07 02:34:30;;;;;;;5.93;2.25;;;10.30;99.90;;;;;;5051269;28;20033;-58
2022/04/07 02:36:56;;;;;;;7.65;2.13;;;10.30;99.90;;;;;;5065442;28;20051;-58
2022/04/07 02:39:21;;;;;;;8.57;2.53;;;10.30;99.90;;;;;;5050364;28;20474;-58
2022/04/07 02:41:47;;;;;;;9.15;2.42;;;10.20;99.90;;;;;;5050422;28;20386;-58
2022/04/07 02:44:13;;;;;;;6.75;2.15;;;10.10;99.90;;;;;;5051157;28;20029;-58
2022/04/07 02:46:38;;;;;;;7.40;2.47;;;10.10;99.90;;;;;;5051233;28;20025;-58
2022/04/07 02:49:04;;;;;;;10.35;2.35;;;10.10;99.90;;;;;;5050390;28;20041;-58
2022/04/07 02:51:31;;;;;;;7.75;2.17;;;10.10;99.90;;;;;;5051559;28;20033;-58
2022/04/07 02:53:58;;;;;;;8.35;2.30;;;10.10;99.90;;;;;;5051798;28;20037;-58
2022/04/07 02:56:27;;;;;;;4.00;2.00;;;10.10;99.90;;;;;;5051133;28;20025;-59
2022/04/07 02:58:53;;;;;;;4.22;1.77;;;10.10;99.90;;;;;;5050526;28;20043;-59
2022/04/07 03:01:19;;;;;;;7.13;2.33;;;10.20;99.90;;;;;;5049355;28;20414;-58
2022/04/07 03:03:45;;;;;;;4.95;2.03;;;10.20;99.90;;;;;;5050839;28;20013;-58
2022/04/07 03:06:11;;;;;;;5.90;1.98;;;10.20;99.90;;;;;;5054151;28;20021;-58
2022/04/07 03:08:36;;;;;;;4.60;2.17;;;10.20;99.90;;;;;;5054106;28;20123;-58
2022/04/07 03:11:03;;;;;;;3.83;2.22;;;10.20;99.90;;;;;;5054097;28;20035;-58
2022/04/07 03:13:28;;;;;;;10.23;2.33;;;10.30;99.90;;;;;;5054283;28;20029;-59
2022/04/07 03:15:54;;;;;;;9.55;2.67;;;10.30;99.90;;;;;;5054893;28;20028;-58
2022/04/07 03:18:20;;;;;;;3.95;2.10;;;10.30;99.90;;;;;;5054299;28;20035;-59
2022/04/07 03:20:46;;;;;;;5.68;2.17;;;10.30;99.90;;;;;;5052381;28;20055;-58
2022/04/07 03:23:11;;;;;;;2.38;1.35;;;10.30;99.90;;;;;;5054488;28;20029;-59
2022/04/07 03:25:37;;;;;;;7.82;2.20;;;10.30;99.90;;;;;;5055010;28;20037;-59
2022/04/07 03:28:04;;;;;;;3.85;1.85;;;10.10;99.90;;;;;;5069941;28;20475;-59
2022/04/07 03:30:29;;;;;;;7.70;2.80;;;9.90;99.90;;;;;;5053793;28;20029;-58
2022/04/07 03:32:55;;;;;;;6.18;2.38;;;9.80;99.90;;;;;;5054382;28;20363;-59
2022/04/07 03:35:21;;;;;;;7.95;2.60;;;9.80;99.90;;;;;;5054252;28;20021;-58
2022/04/07 03:37:46;;;;;;;4.35;2.50;;;9.80;99.90;;;;;;5054262;28;20059;-58
2022/04/07 03:40:12;;;;;;;6.72;2.85;;;9.80;99.90;;;;;;5069603;28;20079;-58
2022/04/07 03:42:38;;;;;;;9.43;3.55;;;9.80;99.90;;;;;;5054184;28;20383;-58
2022/04/07 03:45:04;;;;;;;6.18;3.15;;;9.90;99.90;;;;;;5053747;28;20028;-58
2022/04/07 03:47:30;;;;;;;9.73;3.28;;;9.80;99.90;;;;;;5053813;28;20040;-59
2022/04/07 03:49:56;;;;;;;7.53;1.73;;;9.90;99.90;;;;;;5053583;28;20553;-58
2022/04/07 03:52:22;;;;;;;2.97;1.40;;;9.80;99.90;;;;;;5053760;28;20108;-58
2022/04/07 03:54:48;;;;;;;6.35;1.63;;;9.90;99.90;;;;;;5053359;28;20029;-58
2022/04/07 03:57:14;;;;;;;5.07;1.60;;;9.80;99.90;;;;;;5053669;28;20028;-59
2022/04/07 03:59:42;;;;;;;3.67;1.67;;;9.80;99.90;;;;;;5053148;28;20112;-58
2022/04/07 04:02:10;;;;;;;3.55;1.77;;;9.90;99.90;;;;;;5053431;28;20025;-59
2022/04/07 04:04:36;;;;;;;2.88;1.50;;;9.80;99.90;;;;;;5053085;28;20013;-59
2022/04/07 04:07:02;;;;;;;6.45;1.75;;;9.80;99.90;;;;;;5052849;28;20025;-59
2022/04/07 04:09:28;;;;;;;1.85;1.50;;;9.80;99.90;;;;;;5052912;28;20051;-59
2022/04/07 04:11:53;;;;;;;8.02;2.70;;;9.80;99.90;;;;;;5053325;28;20100;-60
2022/04/07 04:14:19;;;;;;;5.75;2.55;;;9.70;99.90;;;;;;5053590;28;20525;-61
2022/04/07 04:16:45;;;;;;;4.97;3.17;;;9.70;99.90;;;;;;5052586;28;20029;-60
2022/04/07 04:19:11;;;;;;;7.47;3.33;;;9.60;99.90;;;;;;5053369;28;20071;-62
2022/04/07 04:21:37;;;;;;;8.65;3.50;;;9.50;99.90;;;;;;5053590;28;20024;-61
2022/04/07 04:24:03;;;;;;;7.60;3.50;;;9.60;99.90;;;;;;5052891;28;20021;-62
2022/04/07 04:26:29;;;;;;;10.05;3.33;;;9.60;99.90;;;;;;5053640;28;20482;-64
2022/04/07 04:28:55;;;;;;;7.32;4.25;;;9.60;99.90;;;;;;5052919;28;20028;-64
2022/04/07 04:31:24;;;;;;;12.93;4.10;;;9.50;99.90;;;;;;5052338;28;20092;-65
2022/04/07 04:33:51;;;;;;;12.40;3.63;;;9.50;99.90;;;;;;5052594;28;20435;-63
2022/04/07 04:36:17;;;;;;;9.02;3.45;;;9.50;99.90;;;;;;5052778;28;20478;-64
2022/04/07 04:38:42;;;;;;;5.55;2.97;;;9.50;99.90;;;;;;5053318;28;20028;-63
2022/04/07 04:41:09;;;;;;;10.75;3.72;;;9.50;99.90;;;;;;5052086;28;20029;-63
2022/04/07 04:43:35;;;;;;;8.10;2.70;;;9.60;99.90;;;;;;5052653;28;20095;-63
2022/04/07 04:46:00;;;;;;;10.30;2.72;;;9.50;99.90;;;;;;5053944;28;20241;-62
2022/04/07 04:48:26;;;;;;;5.93;2.28;;;9.50;99.90;;;;;;5052182;28;20029;-62
2022/04/07 04:50:52;;;;;;;8.68;2.60;;;9.60;99.90;;;;;;5053164;28;20041;-62
2022/04/07 04:53:18;;;;;;;9.82;2.92;;;9.60;99.90;;;;;;5052401;28;20057;-61
2022/04/07 04:55:43;;;;;;;5.43;2.65;;;9.60;99.90;;;;;;5052254;28;20017;-61
2022/04/07 04:58:09;;;;;;;12.75;2.95;;;9.70;99.90;;;;;;5052537;28;20021;-60
2022/04/07 05:00:35;;;;;;;5.30;1.52;;;9.60;99.90;;;;;;5052377;28;20116;-60
2022/04/07 05:03:00;;;;;;;9.93;1.85;;;9.70;99.90;;;;;;5052635;28;20060;-60
2022/04/07 05:05:26;;;;;;;6.40;1.73;;;9.80;99.90;;;;;;5052294;28;20430;-60
2022/04/07 05:07:55;;;;;;;7.03;2.03;;;9.90;99.90;;;;;;5052151;28;20447;-59
2022/04/07 05:10:20;;;;;;;7.40;1.80;;;9.80;99.90;;;;;;5068031;28;20079;-59
2022/04/07 05:12:46;;;;;;;6.47;1.60;;;9.80;99.90;;;;;;5052812;28;20437;-59
2022/04/07 05:15:12;;;;;;;6.03;2.00;;;9.80;99.90;;;;;;5067880;28;20033;-60
2022/04/07 05:17:37;;;;;;;8.18;2.00;;;9.90;99.90;;;;;;5067010;28;20031;-59
2022/04/07 05:20:04;;;;;;;3.55;1.33;;;9.90;99.90;;;;;;5051569;28;20025;-59
2022/04/07 05:22:30;;;;;;;5.85;1.40;;;9.90;99.90;;;;;;5053253;28;20032;-60
2022/04/07 05:24:55;;;;;;;7.90;1.90;;;10.00;99.90;;;;;;5051257;28;20502;-59
2022/04/07 05:27:21;;;;;;;7.80;1.67;;;10.00;99.90;;;;;;5051701;28;20104;-59
2022/04/07 05:29:46;;;;;;;5.65;1.58;;;10.00;99.90;;;;;;5051759;28;20040;-59
2022/04/07 05:32:12;;;;;;;8.27;2.53;;;9.90;99.90;;;;;;5051598;28;20036;-59
2022/04/07 05:34:39;;;;;;;8.90;1.75;;;9.90;99.90;;;;;;5051827;28;20470;-60
2022/04/07 05:37:05;;;;;;;8.98;1.85;;;10.00;99.90;;;;;;5052533;28;20087;-60
2022/04/07 05:39:30;;;;;;;4.63;1.52;;;9.90;99.90;;;;;;5052988;28;20025;-59
2022/04/07 05:41:56;;;;;;;6.70;1.98;;;9.90;99.90;;;;;;5067971;28;20017;-59
2022/04/07 05:44:21;;;;;;;7.75;2.42;;;9.80;99.90;;;;;;5052385;28;20082;-59
2022/04/07 05:46:47;;;;;;;11.15;2.20;;;9.80;99.90;;;;;;5051927;28;20025;-59
2022/04/07 05:49:13;;;;;;;5.90;1.70;;;9.70;99.90;;;;;;5051953;28;20037;-60
2022/04/07 05:51:38;;;;;;;11.18;2.20;;;9.70;99.90;;;;;;5051252;28;20398;-61
2022/04/07 05:54:04;;;;;;;8.63;1.83;;;9.70;99.90;;;;;;5050727;28;20036;-61
2022/04/07 05:56:30;;;;;;;5.90;1.20;;;9.70;99.90;;;;;;5051484;28;20021;-60
2022/04/07 05:58:55;;;;;;;15.85;2.70;;;9.70;99.90;;;;;;5051467;28;20036;-59
2022/04/07 06:01:21;;;;;;;9.82;1.75;;;9.60;99.90;;;;;;5066125;28;20036;-59
2022/04/07 06:03:47;;;;;;;7.82;2.22;;;9.70;99.90;;;;;;5051185;28;20025;-58
2022/04/07 06:06:12;;;;;;;6.75;2.10;;;9.70;99.90;;;;;;5051373;28;20052;-57
2022/04/07 06:08:38;;;;;;;3.72;1.80;;;9.70;99.90;;;;;;5051472;28;20032;-57
2022/04/07 06:11:04;;;;;;;7.45;2.65;;;9.80;99.90;;;;;;5050690;28;20390;-57
2022/04/07 06:13:29;;;;;;;4.45;1.77;;;9.80;99.90;;;;;;5051338;28;20029;-56
2022/04/07 06:15:55;;;;;;;7.47;1.70;;;9.80;99.90;;;;;;5052275;28;20470;-56
2022/04/07 06:18:20;;;;;;;6.60;2.15;;;9.90;99.90;;;;;;5051633;28;20029;-57
2022/04/07 06:20:47;;;;;;;3.45;1.45;;;9.90;99.90;;;;;;5050990;28;20429;-56
2022/04/07 06:23:13;;;;;;;2.97;1.60;;;9.90;99.90;;;;;;5050713;28;20108;-57
2022/04/07 06:25:38;;;;;;;8.63;2.50;;;10.00;99.90;;;;;;5066030;28;20031;-56
2022/04/07 06:28:04;;;;;;;2.58;1.25;;;10.00;99.90;;;;;;5051858;28;20037;-57
2022/04/07 06:30:30;;;;;;;5.05;2.05;;;10.00;99.90;;;;;;5049243;28;20021;-55
2022/04/07 06:32:56;;;;;;;9.52;2.70;;;10.00;99.90;;;;;;5050578;28;20036;-55
2022/04/07 06:35:22;;;;;;;4.18;2.00;;;10.00;99.90;;;;;;5051033;28;20041;-56
2022/04/07 06:37:52;;;;;;;4.93;2.63;;;10.00;99.90;;;;;;5050369;28;20029;-57
2022/04/07 06:40:22;;;;;;;6.47;2.10;;;10.00;99.90;;;;;;5050542;28;20025;-56
2022/04/07 06:42:49;;;;;;;3.70;1.50;;;10.10;99.90;;;;;;5052225;28;20037;-55
2022/04/07 06:45:14;;;;;;;4.30;1.73;;;10.10;99.90;;;;;;5047438;28;20363;-56
2022/04/07 06:47:40;;;;;;;5.30;2.42;;;10.20;99.90;;;;;;5046342;28;20040;-56
2022/04/07 06:50:08;;;;;;;4.22;2.10;;;10.10;99.90;;;;;;5063576;28;20049;-55
2022/04/07 06:52:34;;;;;;;4.22;2.10;;;10.10;99.90;;;;;;5069012;28;20031;-57
2022/04/07 06:55:00;;;;;;;4.55;2.55;;;10.20;99.90;;;;;;5037800;28;20029;-57
2022/04/07 06:57:26;;;;;;;6.40;2.60;;;10.10;99.90;;;;;;5050656;28;20043;-57
2022/04/07 06:59:51;;;;;;;3.53;1.85;;;10.10;99.90;;;;;;5069465;28;20091;-57
2022/04/07 07:02:17;;;;;;;5.90;2.80;;;10.20;99.90;;;;;;5074778;28;20025;-56
2022/04/07 07:23:26;;;;;;;5.07;2.30;;;10.20;99.90;;;;;;5134372;27;20393;-56
2022/04/07 07:25:51;;;;;;;2.03;1.63;;;10.30;99.90;;;;;;5133666;27;20016;-56
2022/04/07 07:28:17;;;;;;;3.40;1.95;;;10.30;99.90;;;;;;5131682;27;20515;-56
2022/04/07 07:30:42;;;;;;;4.72;2.10;;;10.30;99.90;;;;;;5108886;27;20051;-57
2022/04/07 07:33:09;;;;;;;5.10;1.98;;;10.30;99.90;;;;;;5095711;28;20099;-57
2022/04/07 07:35:35;;;;;;;2.85;2.17;;;10.30;99.90;;;;;;5104370;28;20077;-56
2022/04/07 07:38:02;;;;;;;2.28;1.95;;;10.30;99.90;;;;;;5096970;28;20021;-57
2022/04/07 07:40:32;;;;;;;5.43;2.58;;;10.30;99.90;;;;;;5091114;28;20024;-58
2022/04/07 07:43:00;;;;;;;7.13;2.65;;;10.40;99.90;;;;;;5090468;28;20488;-58
2022/04/07 07:45:26;;;;;;;3.50;2.97;;;10.40;99.90;;;;;;5088724;28;20036;-57
2022/04/07 07:47:55;;;;;;;6.03;3.05;;;10.40;99.90;;;;;;5095781;28;20483;-57
2022/04/07 07:50:22;;;;;;;2.85;2.40;;;10.50;99.90;;;;;;5086520;28;20028;-56
2022/04/07 07:52:48;;;;;;;3.47;1.75;;;10.50;99.90;;;;;;5089252;28;20020;-57
2022/04/07 07:55:14;;;;;;;0.80;0.75;;;10.50;99.90;;;;;;5107887;28;20027;-56
2022/04/07 07:57:39;;;;;;;1.10;0.95;;;10.50;99.90;;;;;;5092890;28;20016;-57
2022/04/07 08:00:08;;;;;;;1.73;0.50;;;10.50;99.90;;;;;;5088001;28;20021;-57
2022/04/07 08:02:38;;;;;;;1.48;0.75;;;10.40;99.90;;;;;;5089211;28;20412;-56
2022/04/07 08:05:06;;;;;;;0.60;0.60;;;10.40;99.90;;;;;;5089918;28;20035;-55
2022/04/07 08:07:32;;;;;;;0.47;0.40;;;10.30;99.90;;;;;;5087842;28;20033;-56
2022/04/07 08:09:58;;;;;;;0.88;0.47;;;10.20;99.90;;;;;;5091144;28;20024;-56
2022/04/07 08:12:26;;;;;;;0.68;0.40;;;10.10;99.90;;;;;;5091128;28;20498;-57
2022/04/07 08:14:53;;;;;;;1.63;0.60;;;10.00;99.90;;;;;;5074434;28;20024;-57
2022/04/07 08:17:20;;;;;;;1.45;0.60;;;10.00;99.90;;;;;;5065021;28;20032;-57
2022/04/07 08:19:46;;;;;;;2.00;0.60;;;10.00;99.90;;;;;;5056821;28;20029;-57
2022/04/07 08:22:12;;;;;;;3.53;0.70;;;10.00;99.90;;;;;;5060128;28;20037;-57
2022/04/07 08:24:37;;;;;;;0.95;0.50;;;10.00;99.90;;;;;;5043474;28;20052;-56
2022/04/07 08:27:05;;;;;;;1.80;0.60;;;10.10;99.90;;;;;;5043110;28;20095;-56
2022/04/07 08:29:31;;;;;;;3.80;0.57;;;10.10;99.90;;;;;;5054807;28;20108;-56
2022/04/07 08:31:56;;;;;;;1.83;0.82;;;10.10;99.90;;;;;;5047251;28;20089;-56
2022/04/07 08:34:22;;;;;;;1.17;0.50;;;10.20;99.90;;;;;;5048644;28;20060;-57
2022/04/07 08:36:48;;;;;;;1.90;0.52;;;10.30;99.90;;;;;;5046391;28;20071;-56
2022/04/07 08:39:14;;;;;;;2.47;0.85;;;10.60;99.90;;;;;;5066498;28;20496;-56
2022/04/07 08:41:42;;;;;;;0.73;0.60;;;10.80;99.90;;;;;;5074523;28;20029;-56
2022/04/07 08:44:07;;;;;;;3.05;0.98;;;10.80;99.90;;;;;;5052316;28;20367;-56
2022/04/07 08:46:34;;;;;;;2.55;0.75;;;10.90;99.90;;;;;;5047332;28;20036;-56
2022/04/07 08:49:04;;;;;;;2.30;0.60;;;11.00;99.90;;;;;;5055149;28;20079;-56
2022/04/07 08:51:30;;;;;;;2.42;0.43;;;11.00;99.90;;;;;;5047226;28;20033;-57
2022/04/07 08:53:56;;;;;;;0.70;0.43;;;10.90;99.90;;;;;;5047796;28;20025;-57
2022/04/07 08:56:23;;;;;;;1.48;0.50;;;11.00;99.90;;;;;;5036402;28;20577;-57
2022/04/07 08:58:49;;;;;;;1.77;0.70;;;11.00;99.90;;;;;;5052477;28;20168;-57
2022/04/07 09:01:15;;;;;;;2.35;0.70;;;11.00;99.90;;;;;;5063732;28;20074;-58
2022/04/07 09:03:42;;;;;;;2.53;0.82;;;11.00;99.90;;;;;;5053757;28;20440;-59
2022/04/07 09:06:07;;;;;;;3.70;0.90;;;11.20;99.90;;;;;;5042536;28;20040;-59
2022/04/07 09:08:39;;;;;;;3.65;0.85;;;11.40;99.90;;;;;;5053563;28;20025;-58
2022/04/07 09:11:09;;;;;;;3.72;1.23;;;11.60;99.90;;;;;;5054579;28;20029;-58
2022/04/07 09:13:41;;;;;;;5.32;1.10;;;11.50;99.90;;;;;;5043252;28;20393;-58
2022/04/07 09:16:12;;;;;;;5.35;1.10;;;11.70;99.90;;;;;;5044283;28;20033;-59
2022/04/07 09:18:39;;;;;;;2.70;0.70;;;11.90;99.90;;;;;;5050764;28;20501;-60
2022/04/07 09:21:07;;;;;;;2.10;0.60;;;12.10;99.90;;;;;;5045372;28;20116;-60
2022/04/07 09:23:40;;;;;;;6.10;1.10;;;11.80;99.90;;;;;;5034573;28;20074;-59
2022/04/07 09:26:10;;;;;;;3.08;0.80;;;12.20;99.90;;;;;;5038979;28;20036;-58
2022/04/07 09:28:35;;;;;;;6.90;1.10;;;12.60;99.90;;;;;;5021164;28;20040;-58
2022/04/07 09:31:02;;;;;;;6.72;1.02;;;12.90;99.90;;;;;;5046006;28;20025;-58
2022/04/07 09:33:28;;;;;;;3.45;0.88;;;13.20;99.90;;;;;;5036844;28;20116;-58
2022/04/07 09:36:11;;;;;;;3.88;0.60;;;13.20;99.90;;;;;;5049534;28;20021;-58
2022/04/07 09:38:40;;;;;;;8.20;1.35;;;13.40;99.90;;;;;;5038228;28;20025;-58
2022/04/07 09:41:08;;;;;;;2.38;0.80;;;13.70;99.90;;;;;;5013771;28;20083;-58
2022/04/07 09:43:47;;;;;;;8.57;1.60;;;14.00;99.90;;;;;;5053453;28;20176;-58
2022/04/07 09:46:20;;;;;;;7.20;1.38;;;14.10;99.90;;;;;;5030544;28;20390;-58
2022/04/07 09:49:16;;;;;;;3.80;1.00;;;14.30;99.90;;;;;;5041592;28;20025;-58
2022/04/07 09:51:48;;;;;;;8.30;1.52;;;14.30;99.90;;;;;;5048116;28;20565;-58
2022/04/07 09:54:18;;;;;;;5.35;1.15;;;14.10;99.90;;;;;;5039392;28;20106;-58
2022/04/07 09:56:48;;;;;;;4.88;0.90;;;14.40;99.90;;;;;;5062075;28;20037;-58
2022/04/07 09:59:19;;;;;;;5.70;1.33;;;14.30;99.90;;;;;;5023286;28;20033;-58
2022/04/07 10:01:44;;;;;;;6.07;1.25;;;14.60;99.90;;;;;;5033574;28;20028;-58
2022/04/07 10:04:10;;;;;;;4.75;1.45;;;14.80;99.90;;;;;;5032695;28;20430;-59
2022/04/07 10:06:39;;;;;;;6.15;1.27;;;14.80;99.90;;;;;;5051406;28;20067;-58
2022/04/07 10:09:08;;;;;;;4.15;1.40;;;14.60;99.90;;;;;;5037125;28;20029;-57
2022/04/07 10:11:34;;;;;;;6.57;1.75;;;14.40;99.90;;;;;;5028812;28;20083;-57
2022/04/07 10:14:01;;;;;;;5.90;1.73;;;14.40;99.90;;;;;;5042765;28;20056;-58
2022/04/07 10:16:27;;;;;;;6.00;1.55;;;14.30;99.90;;;;;;5050641;28;20021;-57
2022/04/07 10:19:05;;;;;;;6.78;1.58;;;15.10;99.90;;;;;;5049125;28;20072;-58
2022/04/07 10:22:01;;;;;;;5.75;1.10;;;15.80;99.90;;;;;;5039221;28;20045;-58
2022/04/07 10:24:37;;;;;;;4.55;1.15;;;15.30;99.90;;;;;;5054091;28;20397;-58
2022/04/07 10:27:06;;;;;;;4.55;1.40;;;15.00;99.90;;;;;;5050383;28;20029;-58
2022/04/07 10:29:32;;;;;;;4.28;1.52;;;15.50;99.90;;;;;;5043249;28;20032;-57
2022/04/07 10:32:18;;;;;;;6.97;1.80;;;15.20;99.90;;;;;;5074209;28;20029;-58
2022/04/07 10:34:58;;;;;;;3.40;0.85;;;14.80;99.90;;;;;;5033166;28;20029;-58
2022/04/07 10:37:31;;;;;;;7.15;1.20;;;14.00;99.90;;;;;;5054416;28;20116;-57
2022/04/07 10:39:56;;;;;;;4.80;1.23;;;14.20;99.90;;;;;;5048582;28;20033;-57
2022/04/07 10:43:03;;;;;;;7.15;1.25;;;14.40;99.90;;;;;;5042405;28;20116;-57
2022/04/07 10:45:36;;;;;;;6.18;1.00;;;14.70;99.90;;;;;;5048161;28;20032;-58
2022/04/07 10:48:27;;;;;;;6.22;1.48;;;14.90;99.90;;;;;;5052213;28;20272;-57
2022/04/07 10:51:01;;;;;;;6.05;1.60;;;14.90;99.90;;;;;;5038959;28;20036;-57
2022/04/07 10:53:35;;;;;;;8.18;1.48;;;15.50;99.90;;;;;;5049819;28;20025;-57
2022/04/07 10:56:24;;;;;;;5.55;1.10;;;15.50;99.90;;;;;;5034710;28;20567;-57
2022/04/07 10:58:56;;;;;;;4.00;1.30;;;15.70;99.90;;;;;;5049168;28;20469;-57
2022/04/07 11:01:33;;;;;;;6.80;1.33;;;15.50;99.90;;;;;;5049253;28;20029;-57
2022/04/07 11:04:22;;;;;;;6.85;1.55;;;15.20;99.40;;;;;;5039968;28;20037;-57
2022/04/07 11:09:57;;;;;;;10.18;1.77;;;15.20;99.80;;;;;;5050273;28;20056;-57
2022/04/07 11:12:33;;;;;;;11.82;2.03;;;15.60;99.90;;;;;;5048291;28;20029;-57
2022/04/07 11:15:01;;;;;;;7.88;1.65;;;15.70;97.70;;;;;;5026267;28;20144;-57
2022/04/07 11:17:34;;;;;;;5.82;1.80;;;15.80;99.90;;;;;;5052587;28;20017;-58
2022/04/07 11:20:17;;;;;;;8.43;1.80;;;16.00;98.60;;;;;;5049807;28;20474;-57
2022/04/07 11:22:53;;;;;;;7.47;1.55;;;15.60;98.50;;;;;;5036961;28;20080;-57
2022/04/07 11:25:33;;;;;;;10.38;2.17;;;15.50;97.80;;;;;;5023512;28;20025;-57
2022/04/07 11:28:02;;;;;;;11.13;2.03;;;15.30;98.50;;;;;;5036308;28;20065;-57
2022/04/07 11:30:36;;;;;;;5.18;1.52;;;15.00;98.20;;;;;;5047956;28;20029;-57
2022/04/07 11:33:20;;;;;;;12.18;2.50;;;15.90;98.20;;;;;;5037950;28;20025;-57
2022/04/07 11:35:58;;;;;;;8.38;1.73;;;15.60;99.00;;;;;;5048559;28;20531;-57
2022/04/07 11:38:42;;;;;;;6.80;1.80;;;15.70;99.00;;;;;;5050925;28;20051;-57
2022/04/07 11:41:15;;;;;;;7.53;1.40;;;15.90;98.00;;;;;;5044815;28;20033;-57
2022/04/07 11:43:46;;;;;;;8.73;2.30;;;15.40;98.80;;;;;;5039106;28;20502;-56
2022/04/07 11:46:24;;;;;;;10.23;2.42;;;15.30;98.70;;;;;;5048947;28;20033;-57
2022/04/07 11:48:50;;;;;;;9.60;1.90;;;15.90;98.90;;;;;;5050615;28;20063;-56
2022/04/07 11:51:19;;;;;;;10.77;2.17;;;16.10;97.80;;;;;;5049986;28;20159;-57
2022/04/07 11:53:55;;;;;;;9.18;2.53;;;16.00;97.70;;;;;;5050289;28;20367;-57
2022/04/07 11:56:34;;;;;;;10.20;2.38;;;15.70;98.60;;;;;;5050955;28;20375;-57
2022/04/07 11:59:05;;;;;;;9.52;2.38;;;15.50;97.60;;;;;;5052240;28;20013;-56
2022/04/07 12:01:31;;;;;;;8.40;2.63;;;15.10;98.20;;;;;;5054290;28;20029;-56
2022/04/07 12:04:02;;;;;;;13.98;2.28;;;14.90;99.20;;;;;;5086237;28;20402;-56
2022/04/07 12:06:32;;;;;;;10.48;2.40;;;14.50;99.80;;;;;;5055090;28;20108;-56
2022/04/07 12:08:58;;;;;;;14.80;3.15;;;15.00;99.30;;;;;;5053088;28;20040;-56
2022/04/07 12:11:30;;;;;;;11.23;2.33;;;14.90;98.20;;;;;;5054388;28;20025;-56
2022/04/07 12:13:56;;;;;;;14.60;2.47;;;14.90;98.00;;;;;;5054773;28;20021;-56
2022/04/07 12:16:23;;;;;;;10.98;2.33;;;15.00;98.50;;;;;;5066182;28;20466;-56
2022/04/07 12:18:57;;;;;;;10.27;3.10;;;15.40;98.30;;;;;;5053478;28;20128;-56
2022/04/07 12:21:23;;;;;;;16.30;2.10;;;15.30;97.80;;;;;;5053788;28;21528;-56
2022/04/07 12:24:09;;;;;;;13.63;3.65;;;15.20;98.30;;;;;;5053800;28;20110;-55
2022/04/07 12:26:46;;;;;;;13.13;2.75;;;15.10;98.20;;;;;;5064930;28;20082;-56
2022/04/07 12:29:21;;;;;;;13.20;2.72;;;14.60;98.40;;;;;;5073785;28;20047;-56
2022/04/07 12:31:59;;;;;;;16.42;2.47;;;14.80;98.00;;;;;;5085720;28;20028;-56
2022/04/07 12:34:25;;;;;;;6.88;2.13;;;14.30;98.40;;;;;;5058237;28;20029;-55
2022/04/07 12:36:52;;;;;;;13.57;2.63;;;14.80;97.40;;;;;;5065258;28;20017;-56
2022/04/07 12:39:17;;;;;;;10.27;1.98;;;15.20;97.70;;;;;;5074130;28;20024;-56
2022/04/07 12:41:50;;;;;;;13.20;2.83;;;14.60;97.80;;;;;;5074802;28;20028;-56
2022/04/07 12:44:30;;;;;;;13.70;2.95;;;13.80;99.50;;;;;;5075011;28;20025;-56
2022/04/07 12:46:57;;;;;;;8.48;1.92;;;13.90;99.70;;;;;;5078815;28;20047;-56
2022/04/07 12:49:31;;;;;;;14.50;2.85;;;13.50;99.30;;;;;;5083306;28;20029;-57
2022/04/07 12:52:16;;;;;;;10.80;2.30;;;14.10;99.90;;;;;;5069877;28;20055;-56
2022/04/07 12:54:58;;;;;;;12.70;2.55;;;14.20;99.90;;;;;;5070073;28;20020;-56
2022/04/07 12:57:41;;;;;;;10.50;2.65;;;14.30;99.30;;;;;;5071828;28;20017;-56
2022/04/07 13:00:12;;;;;;;14.95;2.72;;;13.90;97.60;;;;;;5074216;28;20047;-56
2022/04/07 13:02:48;;;;;;;17.27;2.95;;;14.10;97.80;;;;;;5061613;28;20056;-55
2022/04/07 13:05:24;;;;;;;12.13;2.67;;;14.20;98.20;;;;;;5087036;28;20123;-56
2022/04/07 13:07:50;;;;;;;9.68;1.80;;;14.40;98.50;;;;;;5073306;28;20507;-56
2022/04/07 13:10:16;;;;;;;13.63;2.30;;;13.90;98.50;;;;;;5053673;28;20029;-56
2022/04/07 13:12:44;;;;;;;12.13;2.40;;;13.70;99.10;;;;;;5055020;28;20025;-56
2022/04/07 13:15:11;;;;;;;14.30;3.10;;;13.60;99.90;;;;;;5069904;28;20115;-56
2022/04/07 13:17:37;;;;;;;12.48;2.42;;;13.40;99.90;;;;;;5064037;28;20129;-56